createdAt,value
2023-07-08T00:00:16.142Z,14
2023-07-08T00:05:22.243Z,14.1
2023-07-08T00:10:28.339Z,14
2023-07-08T00:15:34.416Z,14
2023-07-08T00:20:40.517Z,13.9
2023-07-08T00:25:46.610Z,13.7
2023-07-08T00:30:52.734Z,13.7
2023-07-08T00:35:58.821Z,13.5
2023-07-08T00:41:04.898Z,13.3
2023-07-08T00:46:11.007Z,13.4
2023-07-08T00:51:17.076Z,13.3
2023-07-08T00:56:23.338Z,13.3
2023-07-08T01:01:29.298Z,12.9
2023-07-08T01:06:35.372Z,13
2023-07-08T01:11:41.458Z,13
2023-07-08T01:16:47.761Z,12.8
2023-07-08T01:21:53.665Z,13
2023-07-08T01:26:59.776Z,12.9
2023-07-08T01:32:05.899Z,12.8
2023-07-08T01:37:11.923Z,12.7
2023-07-08T01:42:18.032Z,13
2023-07-08T01:47:24.158Z,13
2023-07-08T01:52:30.208Z,13.3
2023-07-08T01:57:36.537Z,13.4
2023-07-08T02:02:42.428Z,13.3
2023-07-08T02:07:48.778Z,13.6
2023-07-08T02:12:54.625Z,13.6
2023-07-08T02:18:00.699Z,13.5
2023-07-08T02:23:06.796Z,13.6
2023-07-08T02:28:12.875Z,13.8
2023-07-08T02:33:19.045Z,13.8
2023-07-08T02:38:25.071Z,13.7
2023-07-08T02:43:31.164Z,13.4
2023-07-08T02:48:37.351Z,13.4
2023-07-08T02:53:43.356Z,13.4
2023-07-08T02:58:49.435Z,13.1
2023-07-08T03:03:55.690Z,13.1
2023-07-08T03:09:01.797Z,13.2
2023-07-08T03:14:07.803Z,13.3
2023-07-08T03:19:13.811Z,13.4
2023-07-08T03:24:19.922Z,13.4
2023-07-08T03:29:26.031Z,13.4
2023-07-08T03:34:32.115Z,13.6
2023-07-08T03:39:38.199Z,13.6
2023-07-08T03:44:44.312Z,13.6
2023-07-08T03:49:50.437Z,13.6
2023-07-08T03:54:56.496Z,13.5
2023-07-08T04:00:02.859Z,13.4
2023-07-08T04:05:08.924Z,13.6
2023-07-08T04:10:14.814Z,13.7
2023-07-08T04:15:20.862Z,13.5
2023-07-08T04:20:27.053Z,13
2023-07-08T04:25:33.129Z,12.8
2023-07-08T04:30:39.165Z,12.7
2023-07-08T04:35:45.258Z,12.7
2023-07-08T04:40:51.337Z,12.6
2023-07-08T04:45:57.812Z,12.8
2023-07-08T04:51:03.545Z,12.8
2023-07-08T04:56:09.650Z,13
2023-07-08T05:01:16.015Z,12.9
2023-07-08T05:06:22.016Z,13
2023-07-08T05:11:27.920Z,13.2
2023-07-08T05:16:34.025Z,13.2
2023-07-08T05:21:40.148Z,13.2
2023-07-08T05:26:46.205Z,13.4
2023-07-08T05:31:52.316Z,13.5
2023-07-08T05:36:58.509Z,13.5
2023-07-08T05:42:04.469Z,13.6
2023-07-08T05:47:10.598Z,13.7
2023-07-08T05:52:16.705Z,13.5
2023-07-08T05:57:22.785Z,13.4
2023-07-08T06:02:28.897Z,13.5
2023-07-08T06:07:35.078Z,13.6
2023-07-08T06:12:41.043Z,13.8
2023-07-08T06:17:47.157Z,13.8
2023-07-08T06:22:54.281Z,13.9
2023-07-08T06:27:59.350Z,14.1
2023-07-08T06:33:05.477Z,14.6
2023-07-08T06:38:11.532Z,15.2
2023-07-08T06:43:17.643Z,15.5
2023-07-08T06:48:23.737Z,15.6
2023-07-08T06:53:29.822Z,15.8
2023-07-08T06:58:35.901Z,15.9
2023-07-08T07:03:42.030Z,15.6
2023-07-08T07:08:48.341Z,16
2023-07-08T07:13:54.230Z,16.6
2023-07-08T07:19:00.271Z,16.8
2023-07-08T07:24:06.380Z,17.2
2023-07-08T07:29:12.469Z,17.3
2023-07-08T07:34:18.592Z,18.2
2023-07-08T07:39:24.672Z,17.8
2023-07-08T07:44:30.999Z,18.3
2023-07-08T07:49:36.889Z,22.6
2023-07-08T07:54:42.951Z,21
2023-07-08T07:59:49.044Z,21.2
2023-07-08T08:04:55.159Z,24.8
2023-07-08T08:10:01.234Z,24.7
2023-07-08T08:15:07.338Z,24.8
2023-07-08T08:20:13.591Z,25.4
2023-07-08T08:25:19.546Z,23.8
2023-07-08T08:30:25.790Z,23
2023-07-08T08:35:31.865Z,21.1
2023-07-08T08:40:37.804Z,20.8
2023-07-08T08:45:43.923Z,19.8
2023-07-08T08:50:49.999Z,20.3
2023-07-08T08:55:56.116Z,20.6
2023-07-08T09:01:02.197Z,20.7
2023-07-08T09:06:08.298Z,21.6
2023-07-08T09:11:14.540Z,20.7
2023-07-08T09:16:20.609Z,21.5
2023-07-08T09:21:26.627Z,21.9
2023-07-08T09:26:32.703Z,21.4
2023-07-08T09:31:38.795Z,20.7
2023-07-08T09:36:44.876Z,21.4
2023-07-08T09:41:50.983Z,22.3
2023-07-08T09:46:57.095Z,22.3
2023-07-08T09:52:03.161Z,21.3
2023-07-08T09:57:09.547Z,21.9
2023-07-08T10:02:21.014Z,22.4
2023-07-08T10:07:27.381Z,22.8
2023-07-08T10:12:33.184Z,22.7
2023-07-08T10:17:39.276Z,22.8
2023-07-08T10:22:45.389Z,21.3
2023-07-08T10:27:51.506Z,20.9
2023-07-08T10:32:57.595Z,22.3
2023-07-08T10:38:03.665Z,22.7
2023-07-08T10:43:09.767Z,23.1
2023-07-08T10:48:17.563Z,23.3
2023-07-08T10:53:21.947Z,23.6
2023-07-08T10:58:28.056Z,24.1
2023-07-08T11:03:34.145Z,23.3
2023-07-08T11:08:40.238Z,23.4
2023-07-08T11:13:46.466Z,22.9
2023-07-08T11:18:52.423Z,22.9
2023-07-08T11:23:58.521Z,22
2023-07-08T11:29:04.647Z,22.7
2023-07-08T11:34:10.726Z,22.4
2023-07-08T11:39:16.815Z,22.3
2023-07-08T11:44:22.909Z,21.8
2023-07-08T11:49:29.255Z,21.6
2023-07-08T11:54:35.104Z,22.3
2023-07-08T11:59:41.185Z,22.2
2023-07-08T12:04:47.290Z,22.5
2023-07-08T12:09:53.369Z,22.9
2023-07-08T12:14:59.486Z,23
2023-07-08T12:20:05.750Z,23.4
2023-07-08T12:25:11.680Z,23.1
2023-07-08T12:30:17.797Z,23.7
2023-07-08T12:35:23.892Z,23.3
2023-07-08T12:40:29.983Z,23.6
2023-07-08T12:45:36.045Z,23.2
2023-07-08T12:50:42.135Z,22.6
2023-07-08T12:55:48.254Z,22.6
2023-07-08T13:00:54.332Z,22.7
2023-07-08T13:06:00.442Z,23
2023-07-08T13:11:06.526Z,22.5
2023-07-08T13:16:12.662Z,22.1
2023-07-08T13:21:18.731Z,22.4
2023-07-08T13:26:24.964Z,22.6
2023-07-08T13:31:30.962Z,21.9
2023-07-08T13:36:37.015Z,22.4
2023-07-08T13:41:43.104Z,21.9
2023-07-08T13:46:49.232Z,22.4
2023-07-08T13:51:55.294Z,22.7
2023-07-08T13:57:01.416Z,23.1
2023-07-08T14:02:07.514Z,23.2
2023-07-08T14:07:13.609Z,22.7
2023-07-08T14:12:20.946Z,22.7
2023-07-08T14:17:25.823Z,22.8
2023-07-08T14:22:31.890Z,22.9
2023-07-08T14:27:37.999Z,23.1
2023-07-08T14:32:44.137Z,23.3
2023-07-08T14:37:50.200Z,23.5
2023-07-08T14:42:56.255Z,23.1
2023-07-08T14:48:02.511Z,23.1
2023-07-08T14:53:08.448Z,23.3
2023-07-08T14:58:14.548Z,22.7
2023-07-08T15:03:20.994Z,22.8
2023-07-08T15:08:26.754Z,22.7
2023-07-08T15:13:32.921Z,22.4
2023-07-08T15:18:39.085Z,22.5
2023-07-08T15:23:45.020Z,22.3
2023-07-08T15:28:51.106Z,22.3
2023-07-08T15:33:57.485Z,22
2023-07-08T15:39:03.307Z,21.9
2023-07-08T15:44:09.631Z,21.4
2023-07-08T15:49:15.495Z,21.3
2023-07-08T15:54:21.619Z,21.3
2023-07-08T15:59:27.697Z,21
2023-07-08T16:04:33.828Z,21
2023-07-08T16:09:39.883Z,20.8
2023-07-08T16:14:45.986Z,20.4
2023-07-08T16:19:52.101Z,20.5
2023-07-08T16:24:58.199Z,20.1
2023-07-08T16:30:04.259Z,20.1
2023-07-08T16:35:10.345Z,20
2023-07-08T16:40:16.448Z,19.9
2023-07-08T16:45:22.589Z,19.9
2023-07-08T16:50:28.733Z,19.9
2023-07-08T16:55:34.754Z,19.7
2023-07-08T17:00:40.857Z,19.6
2023-07-08T17:05:46.929Z,19.6
2023-07-08T17:10:53.015Z,19.6
2023-07-08T17:15:59.163Z,19.5
2023-07-08T17:21:05.394Z,19.5
2023-07-08T17:26:11.306Z,19.6
2023-07-08T17:31:17.464Z,19.4
2023-07-08T17:36:23.520Z,19.3
2023-07-08T17:41:29.875Z,19.3
2023-07-08T17:46:35.748Z,19.2
2023-07-08T17:51:41.967Z,19
2023-07-08T17:56:47.884Z,19.3
2023-07-08T18:01:54.005Z,19
2023-07-08T18:07:00.078Z,18.6
2023-07-08T18:12:06.169Z,18.5
2023-07-08T18:17:12.261Z,18.5
2023-07-08T18:22:18.355Z,18.5
2023-07-08T18:27:24.477Z,18.1
2023-07-08T18:32:30.962Z,18.1
2023-07-08T18:37:36.651Z,18.1
2023-07-08T18:42:42.762Z,17.6
2023-07-08T18:47:48.890Z,17.7
2023-07-08T18:52:54.935Z,17.5
2023-07-08T18:58:01.033Z,17.4
2023-07-08T19:03:07.154Z,17.3
2023-07-08T19:08:13.233Z,17.7
2023-07-08T19:13:19.334Z,17.4
2023-07-08T19:18:25.416Z,17.8
2023-07-08T19:23:31.554Z,17.4
2023-07-08T19:28:37.611Z,17.7
2023-07-08T19:33:43.715Z,17.4
2023-07-08T19:38:49.804Z,17.6
2023-07-08T19:43:55.898Z,17.1
2023-07-08T19:49:01.982Z,16.9
2023-07-08T19:54:08.230Z,16.8
2023-07-08T19:59:14.163Z,17
2023-07-08T20:04:20.256Z,16.9
2023-07-08T20:09:26.605Z,16.6
2023-07-08T20:14:32.469Z,16.7
2023-07-08T20:19:38.576Z,16.7
2023-07-08T20:24:44.667Z,17.1
2023-07-08T20:29:50.746Z,16.8
2023-07-08T20:34:56.835Z,16.9
2023-07-08T20:40:02.965Z,16.7
2023-07-08T20:45:09.026Z,16.8
2023-07-08T20:50:15.105Z,16.6
2023-07-08T20:55:21.360Z,16.6
2023-07-08T21:00:27.564Z,16.5
2023-07-08T21:05:33.420Z,16.5
2023-07-08T21:10:39.528Z,16.5
2023-07-08T21:15:45.653Z,16.4
2023-07-08T21:20:51.742Z,16.7
2023-07-08T21:25:57.789Z,16.4
2023-07-08T21:31:03.907Z,16.4
2023-07-08T21:36:09.964Z,16.4
2023-07-08T21:41:16.084Z,16.4
2023-07-08T21:46:22.361Z,16.3
2023-07-08T21:51:28.264Z,16.4
2023-07-08T21:56:34.362Z,16.5
2023-07-08T22:01:40.768Z,16.1
2023-07-08T22:06:46.563Z,15.9
2023-07-08T22:11:52.638Z,16.1
2023-07-08T22:17:09.764Z,16.2
2023-07-08T22:22:04.843Z,15.9
2023-07-08T22:27:10.933Z,16
2023-07-08T22:32:16.995Z,16.1
2023-07-08T22:37:23.106Z,16
2023-07-08T22:42:29.214Z,16.3
2023-07-08T22:47:35.346Z,16.8
2023-07-08T22:52:41.387Z,16.3
2023-07-08T22:57:47.507Z,16
2023-07-08T23:02:53.638Z,16.2
2023-07-08T23:07:59.755Z,16.5
2023-07-08T23:13:05.937Z,16.2
2023-07-08T23:18:12.061Z,16.4
2023-07-08T23:23:18.144Z,16.4
2023-07-08T23:28:24.070Z,15.9
2023-07-08T23:33:30.172Z,15.8
2023-07-08T23:38:36.241Z,15.8
2023-07-08T23:43:42.360Z,15.9
2023-07-08T23:48:48.438Z,15.8
2023-07-08T23:53:54.543Z,16
2023-07-08T23:59:00.648Z,15.7
